sensor_id;sensor_type;location;lat;lon;timestamp;temperature;humidity
51733;DHT22;39139;53.144;6.244;2023-04-19T00:02:17;8.50;99.90
51733;DHT22;39139;53.144;6.244;2023-04-19T00:04:44;8.40;99.90
51733;DHT22;39139;53.144;6.244;2023-04-19T00:07:10;8.40;99.90
51733;DHT22;39139;53.144;6.244;2023-04-19T00:09:36;8.30;99.90
51733;DHT22;39139;53.144;6.244;2023-04-19T00:12:02;8.40;99.90
51733;DHT22;39139;53.144;6.244;2023-04-19T00:14:28;8.30;99.90
51733;DHT22;39139;53.144;6.244;2023-04-19T00:16:53;8.40;99.90
51733;DHT22;39139;53.144;6.244;2023-04-19T00:19:19;8.30;99.90
51733;DHT22;39139;53.144;6.244;2023-04-19T00:21:46;8.30;99.90
51733;DHT22;39139;53.144;6.244;2023-04-19T00:24:12;8.20;99.90
51733;DHT22;39139;53.144;6.244;2023-04-19T00:26:37;8.20;99.90
51733;DHT22;39139;53.144;6.244;2023-04-19T00:29:03;8.20;99.90
51733;DHT22;39139;53.144;6.244;2023-04-19T00:31:28;8.20;99.90
51733;DHT22;39139;53.144;6.244;2023-04-19T00:33:55;8.20;99.90
51733;DHT22;39139;53.144;6.244;2023-04-19T00:36:20;8.20;99.90
51733;DHT22;39139;53.144;6.244;2023-04-19T00:38:46;8.20;99.90
51733;DHT22;39139;53.144;6.244;2023-04-19T00:41:12;8.10;99.90
51733;DHT22;39139;53.144;6.244;2023-04-19T00:43:37;8.10;99.90
51733;DHT22;39139;53.144;6.244;2023-04-19T00:46:04;8.10;99.90
51733;DHT22;39139;53.144;6.244;2023-04-19T00:48:30;8.00;99.90
51733;DHT22;39139;53.144;6.244;2023-04-19T00:50:56;8.00;99.90
51733;DHT22;39139;53.144;6.244;2023-04-19T00:53:21;8.00;99.90
51733;DHT22;39139;53.144;6.244;2023-04-19T00:55:47;8.00;99.90
51733;DHT22;39139;53.144;6.244;2023-04-19T00:58:16;8.00;99.90
51733;DHT22;39139;53.144;6.244;2023-04-19T01:00:43;7.90;99.90
51733;DHT22;39139;53.144;6.244;2023-04-19T01:03:08;7.90;99.90
51733;DHT22;39139;53.144;6.244;2023-04-19T01:05:34;7.90;99.90
51733;DHT22;39139;53.144;6.244;2023-04-19T01:08:00;8.00;99.90
51733;DHT22;39139;53.144;6.244;2023-04-19T01:10:26;7.90;99.90
51733;DHT22;39139;53.144;6.244;2023-04-19T01:12:51;7.90;99.90
51733;DHT22;39139;53.144;6.244;2023-04-19T01:15:17;7.90;99.90
51733;DHT22;39139;53.144;6.244;2023-04-19T01:17:43;8.00;99.90
51733;DHT22;39139;53.144;6.244;2023-04-19T01:20:08;7.90;99.90
51733;DHT22;39139;53.144;6.244;2023-04-19T01:22:35;7.90;99.90
51733;DHT22;39139;53.144;6.244;2023-04-19T01:25:03;8.40;99.90
51733;DHT22;39139;53.144;6.244;2023-04-19T01:27:29;8.00;99.90
51733;DHT22;39139;53.144;6.244;2023-04-19T01:29:55;7.90;99.90
51733;DHT22;39139;53.144;6.244;2023-04-19T01:32:20;7.90;99.90
51733;DHT22;39139;53.144;6.244;2023-04-19T01:34:51;7.90;99.90
51733;DHT22;39139;53.144;6.244;2023-04-19T01:37:16;7.90;99.90
51733;DHT22;39139;53.144;6.244;2023-04-19T01:39:42;7.90;99.90
51733;DHT22;39139;53.144;6.244;2023-04-19T01:42:08;7.80;99.90
51733;DHT22;39139;53.144;6.244;2023-04-19T01:44:33;7.90;99.90
51733;DHT22;39139;53.144;6.244;2023-04-19T01:46:59;7.80;99.90
51733;DHT22;39139;53.144;6.244;2023-04-19T01:49:24;7.80;99.90
51733;DHT22;39139;53.144;6.244;2023-04-19T01:51:50;7.80;99.90
51733;DHT22;39139;53.144;6.244;2023-04-19T01:54:16;7.80;99.90
51733;DHT22;39139;53.144;6.244;2023-04-19T01:56:41;7.80;99.90
51733;DHT22;39139;53.144;6.244;2023-04-19T01:59:07;7.80;99.90
51733;DHT22;39139;53.144;6.244;2023-04-19T02:01:33;7.80;99.90
51733;DHT22;39139;53.144;6.244;2023-04-19T02:03:58;7.80;99.90
51733;DHT22;39139;53.144;6.244;2023-04-19T02:06:24;7.80;99.90
51733;DHT22;39139;53.144;6.244;2023-04-19T02:08:51;7.70;99.90
51733;DHT22;39139;53.144;6.244;2023-04-19T02:11:16;7.70;99.90
51733;DHT22;39139;53.144;6.244;2023-04-19T02:13:42;7.70;99.90
51733;DHT22;39139;53.144;6.244;2023-04-19T02:16:09;7.60;99.90
51733;DHT22;39139;53.144;6.244;2023-04-19T02:18:35;7.60;99.90
51733;DHT22;39139;53.144;6.244;2023-04-19T02:21:07;7.60;99.90
51733;DHT22;39139;53.144;6.244;2023-04-19T02:23:33;7.70;99.90
51733;DHT22;39139;53.144;6.244;2023-04-19T02:26:00;7.50;99.90
51733;DHT22;39139;53.144;6.244;2023-04-19T02:28:29;7.50;99.90
51733;DHT22;39139;53.144;6.244;2023-04-19T02:30:55;7.60;99.90
51733;DHT22;39139;53.144;6.244;2023-04-19T02:33:21;7.50;99.90
51733;DHT22;39139;53.144;6.244;2023-04-19T02:35:46;7.60;99.90
51733;DHT22;39139;53.144;6.244;2023-04-19T02:38:12;7.50;99.90
51733;DHT22;39139;53.144;6.244;2023-04-19T02:40:38;7.40;99.90
51733;DHT22;39139;53.144;6.244;2023-04-19T02:43:03;7.30;99.90
51733;DHT22;39139;53.144;6.244;2023-04-19T02:45:29;7.40;99.90
51733;DHT22;39139;53.144;6.244;2023-04-19T02:47:55;7.40;99.90
51733;DHT22;39139;53.144;6.244;2023-04-19T02:50:20;7.40;99.90
51733;DHT22;39139;53.144;6.244;2023-04-19T02:52:46;7.30;99.90
51733;DHT22;39139;53.144;6.244;2023-04-19T02:55:11;7.30;99.90
51733;DHT22;39139;53.144;6.244;2023-04-19T02:57:37;7.30;99.90
51733;DHT22;39139;53.144;6.244;2023-04-19T03:00:03;7.30;99.90
51733;DHT22;39139;53.144;6.244;2023-04-19T03:02:30;7.30;99.90
51733;DHT22;39139;53.144;6.244;2023-04-19T03:04:55;7.30;99.90
51733;DHT22;39139;53.144;6.244;2023-04-19T03:07:22;7.20;99.90
51733;DHT22;39139;53.144;6.244;2023-04-19T03:09:47;7.20;99.90
51733;DHT22;39139;53.144;6.244;2023-04-19T03:12:13;7.20;99.90
51733;DHT22;39139;53.144;6.244;2023-04-19T03:14:38;7.10;99.90
51733;DHT22;39139;53.144;6.244;2023-04-19T03:17:04;7.10;99.90
51733;DHT22;39139;53.144;6.244;2023-04-19T03:19:30;7.10;99.90
51733;DHT22;39139;53.144;6.244;2023-04-19T03:21:55;7.10;99.90
51733;DHT22;39139;53.144;6.244;2023-04-19T03:24:29;7.20;99.90
51733;DHT22;39139;53.144;6.244;2023-04-19T03:26:55;7.00;99.90
51733;DHT22;39139;53.144;6.244;2023-04-19T03:29:21;7.00;99.90
51733;DHT22;39139;53.144;6.244;2023-04-19T03:31:46;7.00;99.90
51733;DHT22;39139;53.144;6.244;2023-04-19T03:34:12;7.00;99.90
51733;DHT22;39139;53.144;6.244;2023-04-19T03:36:38;6.90;99.90
51733;DHT22;39139;53.144;6.244;2023-04-19T03:39:04;6.90;99.90
51733;DHT22;39139;53.144;6.244;2023-04-19T03:41:30;6.90;99.90
51733;DHT22;39139;53.144;6.244;2023-04-19T03:43:56;6.80;99.90
51733;DHT22;39139;53.144;6.244;2023-04-19T03:46:24;6.90;99.90
51733;DHT22;39139;53.144;6.244;2023-04-19T03:48:50;6.70;99.90
51733;DHT22;39139;53.144;6.244;2023-04-19T03:51:16;6.70;99.90
51733;DHT22;39139;53.144;6.244;2023-04-19T03:53:42;6.70;99.90
51733;DHT22;39139;53.144;6.244;2023-04-19T03:56:08;6.70;99.90
51733;DHT22;39139;53.144;6.244;2023-04-19T03:58:34;6.60;99.90
51733;DHT22;39139;53.144;6.244;2023-04-19T04:00:59;6.60;99.90
51733;DHT22;39139;53.144;6.244;2023-04-19T04:03:25;6.60;99.90
51733;DHT22;39139;53.144;6.244;2023-04-19T04:05:51;6.50;99.90
51733;DHT22;39139;53.144;6.244;2023-04-19T04:08:17;6.50;99.90
51733;DHT22;39139;53.144;6.244;2023-04-19T04:10:42;6.50;99.90
51733;DHT22;39139;53.144;6.244;2023-04-19T04:13:08;6.50;99.90
51733;DHT22;39139;53.144;6.244;2023-04-19T04:15:34;6.50;99.90
51733;DHT22;39139;53.144;6.244;2023-04-19T04:17:59;6.40;99.90
51733;DHT22;39139;53.144;6.244;2023-04-19T04:20:25;6.70;99.90
51733;DHT22;39139;53.144;6.244;2023-04-19T04:22:51;6.40;99.90
51733;DHT22;39139;53.144;6.244;2023-04-19T04:25:17;6.40;99.90
51733;DHT22;39139;53.144;6.244;2023-04-19T04:27:43;6.30;99.90
51733;DHT22;39139;53.144;6.244;2023-04-19T04:30:09;6.30;99.90
51733;DHT22;39139;53.144;6.244;2023-04-19T04:32:36;6.30;99.90
51733;DHT22;39139;53.144;6.244;2023-04-19T04:35:03;6.30;99.90
51733;DHT22;39139;53.144;6.244;2023-04-19T04:37:33;6.30;99.90
51733;DHT22;39139;53.144;6.244;2023-04-19T04:40:02;6.30;99.90
51733;DHT22;39139;53.144;6.244;2023-04-19T04:42:31;6.50;99.90
51733;DHT22;39139;53.144;6.244;2023-04-19T04:44:57;6.30;99.90
51733;DHT22;39139;53.144;6.244;2023-04-19T04:47:33;6.30;99.90
51733;DHT22;39139;53.144;6.244;2023-04-19T04:49:59;6.30;99.90
51733;DHT22;39139;53.144;6.244;2023-04-19T04:52:25;6.30;99.90
51733;DHT22;39139;53.144;6.244;2023-04-19T04:54:50;6.30;99.90
51733;DHT22;39139;53.144;6.244;2023-04-19T04:57:16;6.30;99.90
51733;DHT22;39139;53.144;6.244;2023-04-19T04:59:42;6.30;99.90
51733;DHT22;39139;53.144;6.244;2023-04-19T05:02:07;6.30;99.90
51733;DHT22;39139;53.144;6.244;2023-04-19T05:04:33;6.30;99.90
51733;DHT22;39139;53.144;6.244;2023-04-19T05:06:58;5.50;99.90
51733;DHT22;39139;53.144;6.244;2023-04-19T05:09:24;6.40;99.90
51733;DHT22;39139;53.144;6.244;2023-04-19T05:11:50;6.30;99.90
51733;DHT22;39139;53.144;6.244;2023-04-19T05:14:15;6.30;99.90
51733;DHT22;39139;53.144;6.244;2023-04-19T05:16:41;6.30;99.90
51733;DHT22;39139;53.144;6.244;2023-04-19T05:19:07;6.40;99.90
51733;DHT22;39139;53.144;6.244;2023-04-19T05:21:33;6.50;99.90
51733;DHT22;39139;53.144;6.244;2023-04-19T05:23:58;6.30;99.90
51733;DHT22;39139;53.144;6.244;2023-04-19T05:26:24;6.40;99.90
51733;DHT22;39139;53.144;6.244;2023-04-19T05:28:50;6.50;99.90
51733;DHT22;39139;53.144;6.244;2023-04-19T05:31:16;6.50;99.90
51733;DHT22;39139;53.144;6.244;2023-04-19T05:33:42;6.50;99.90
51733;DHT22;39139;53.144;6.244;2023-04-19T05:36:08;6.60;99.90
51733;DHT22;39139;53.144;6.244;2023-04-19T05:38:36;6.60;99.90
51733;DHT22;39139;53.144;6.244;2023-04-19T05:41:03;6.70;99.90
51733;DHT22;39139;53.144;6.244;2023-04-19T05:43:29;6.80;99.90
51733;DHT22;39139;53.144;6.244;2023-04-19T05:45:54;6.80;99.90
51733;DHT22;39139;53.144;6.244;2023-04-19T05:48:20;6.90;99.90
51733;DHT22;39139;53.144;6.244;2023-04-19T05:50:45;6.90;99.90
51733;DHT22;39139;53.144;6.244;2023-04-19T05:53:11;7.00;99.90
51733;DHT22;39139;53.144;6.244;2023-04-19T05:55:37;7.10;99.90
51733;DHT22;39139;53.144;6.244;2023-04-19T05:58:02;7.20;99.90
51733;DHT22;39139;53.144;6.244;2023-04-19T06:00:28;7.30;99.90
51733;DHT22;39139;53.144;6.244;2023-04-19T06:02:54;7.40;99.90
51733;DHT22;39139;53.144;6.244;2023-04-19T06:05:20;7.50;99.90
51733;DHT22;39139;53.144;6.244;2023-04-19T06:07:46;7.70;99.90
51733;DHT22;39139;53.144;6.244;2023-04-19T06:10:12;7.70;99.90
51733;DHT22;39139;53.144;6.244;2023-04-19T06:12:38;7.90;99.90
51733;DHT22;39139;53.144;6.244;2023-04-19T06:15:04;8.00;99.90
51733;DHT22;39139;53.144;6.244;2023-04-19T06:17:30;8.20;99.90
51733;DHT22;39139;53.144;6.244;2023-04-19T06:19:56;8.30;99.90
51733;DHT22;39139;53.144;6.244;2023-04-19T06:22:21;8.50;99.90
51733;DHT22;39139;53.144;6.244;2023-04-19T06:24:47;8.60;99.90
51733;DHT22;39139;53.144;6.244;2023-04-19T06:27:15;8.90;99.90
51733;DHT22;39139;53.144;6.244;2023-04-19T06:29:41;9.10;99.90
51733;DHT22;39139;53.144;6.244;2023-04-19T06:32:07;9.20;99.90
51733;DHT22;39139;53.144;6.244;2023-04-19T06:34:33;9.30;99.90
51733;DHT22;39139;53.144;6.244;2023-04-19T06:36:59;9.30;99.90
51733;DHT22;39139;53.144;6.244;2023-04-19T06:39:24;9.30;99.90
51733;DHT22;39139;53.144;6.244;2023-04-19T06:41:51;9.40;99.90
51733;DHT22;39139;53.144;6.244;2023-04-19T06:44:17;9.40;99.90
51733;DHT22;39139;53.144;6.244;2023-04-19T06:46:42;9.60;99.90
51733;DHT22;39139;53.144;6.244;2023-04-19T06:49:08;9.70;99.90
51733;DHT22;39139;53.144;6.244;2023-04-19T06:51:34;9.80;99.90
51733;DHT22;39139;53.144;6.244;2023-04-19T06:53:59;9.80;99.90
51733;DHT22;39139;53.144;6.244;2023-04-19T06:56:42;10.00;99.90
51733;DHT22;39139;53.144;6.244;2023-04-19T06:59:11;10.10;99.90
51733;DHT22;39139;53.144;6.244;2023-04-19T07:01:37;10.20;99.90
51733;DHT22;39139;53.144;6.244;2023-04-19T07:04:03;10.30;99.90
51733;DHT22;39139;53.144;6.244;2023-04-19T07:06:28;10.10;99.90
51733;DHT22;39139;53.144;6.244;2023-04-19T07:08:54;10.20;99.90
51733;DHT22;39139;53.144;6.244;2023-04-19T07:11:19;10.10;99.90
51733;DHT22;39139;53.144;6.244;2023-04-19T07:13:45;10.10;99.90
51733;DHT22;39139;53.144;6.244;2023-04-19T07:16:11;9.90;99.90
51733;DHT22;39139;53.144;6.244;2023-04-19T07:18:38;9.90;99.90
51733;DHT22;39139;53.144;6.244;2023-04-19T07:21:03;9.90;99.90
51733;DHT22;39139;53.144;6.244;2023-04-19T07:23:29;9.70;99.90
51733;DHT22;39139;53.144;6.244;2023-04-19T07:25:55;9.80;99.90
51733;DHT22;39139;53.144;6.244;2023-04-19T07:28:20;9.90;99.90
51733;DHT22;39139;53.144;6.244;2023-04-19T07:30:46;9.70;99.90
51733;DHT22;39139;53.144;6.244;2023-04-19T07:33:12;9.80;99.90
51733;DHT22;39139;53.144;6.244;2023-04-19T07:35:40;9.90;99.90
51733;DHT22;39139;53.144;6.244;2023-04-19T07:38:06;9.70;99.90
51733;DHT22;39139;53.144;6.244;2023-04-19T07:40:31;10.00;99.90
51733;DHT22;39139;53.144;6.244;2023-04-19T07:42:57;10.00;99.90
51733;DHT22;39139;53.144;6.244;2023-04-19T07:45:23;10.20;99.90
51733;DHT22;39139;53.144;6.244;2023-04-19T07:47:48;10.30;99.90
51733;DHT22;39139;53.144;6.244;2023-04-19T07:50:14;10.50;99.90
51733;DHT22;39139;53.144;6.244;2023-04-19T07:52:40;10.60;99.90
51733;DHT22;39139;53.144;6.244;2023-04-19T07:55:06;10.60;99.90
51733;DHT22;39139;53.144;6.244;2023-04-19T07:57:33;10.70;99.90
51733;DHT22;39139;53.144;6.244;2023-04-19T07:59:59;10.80;99.90
51733;DHT22;39139;53.144;6.244;2023-04-19T08:02:26;11.00;99.90
51733;DHT22;39139;53.144;6.244;2023-04-19T08:04:52;11.10;99.90
51733;DHT22;39139;53.144;6.244;2023-04-19T08:07:18;11.10;99.90
51733;DHT22;39139;53.144;6.244;2023-04-19T08:09:44;11.20;99.90
51733;DHT22;39139;53.144;6.244;2023-04-19T08:12:09;11.50;99.90
51733;DHT22;39139;53.144;6.244;2023-04-19T08:14:35;11.70;99.90
51733;DHT22;39139;53.144;6.244;2023-04-19T08:17:03;12.00;99.90
51733;DHT22;39139;53.144;6.244;2023-04-19T08:19:29;12.20;99.90
51733;DHT22;39139;53.144;6.244;2023-04-19T08:21:54;12.50;99.90
51733;DHT22;39139;53.144;6.244;2023-04-19T08:24:21;12.80;99.90
51733;DHT22;39139;53.144;6.244;2023-04-19T08:26:46;13.00;99.20
51733;DHT22;39139;53.144;6.244;2023-04-19T08:29:19;13.10;98.70
51733;DHT22;39139;53.144;6.244;2023-04-19T08:31:45;13.20;97.80
51733;DHT22;39139;53.144;6.244;2023-04-19T08:34:11;13.40;96.80
51733;DHT22;39139;53.144;6.244;2023-04-19T08:36:37;13.60;97.80
51733;DHT22;39139;53.144;6.244;2023-04-19T08:39:03;14.00;97.10
51733;DHT22;39139;53.144;6.244;2023-04-19T08:41:29;14.40;98.30
51733;DHT22;39139;53.144;6.244;2023-04-19T08:43:55;14.80;97.70
51733;DHT22;39139;53.144;6.244;2023-04-19T08:46:23;15.10;96.90
51733;DHT22;39139;53.144;6.244;2023-04-19T08:48:49;14.90;95.10
51733;DHT22;39139;53.144;6.244;2023-04-19T08:51:17;14.90;96.10
51733;DHT22;39139;53.144;6.244;2023-04-19T08:53:44;15.20;95.80
51733;DHT22;39139;53.144;6.244;2023-04-19T08:56:10;15.40;95.90
51733;DHT22;39139;53.144;6.244;2023-04-19T08:58:36;15.20;94.50
51733;DHT22;39139;53.144;6.244;2023-04-19T09:01:06;15.60;95.80
51733;DHT22;39139;53.144;6.244;2023-04-19T09:03:32;15.70;96.00
51733;DHT22;39139;53.144;6.244;2023-04-19T09:05:59;16.10;95.20
51733;DHT22;39139;53.144;6.244;2023-04-19T09:08:31;16.20;95.10
51733;DHT22;39139;53.144;6.244;2023-04-19T09:10:59;16.10;94.30
51733;DHT22;39139;53.144;6.244;2023-04-19T09:13:25;16.20;94.60
51733;DHT22;39139;53.144;6.244;2023-04-19T09:15:51;16.20;93.30
51733;DHT22;39139;53.144;6.244;2023-04-19T09:18:18;16.20;93.60
51733;DHT22;39139;53.144;6.244;2023-04-19T09:20:45;16.30;93.30
51733;DHT22;39139;53.144;6.244;2023-04-19T09:23:13;16.30;93.20
51733;DHT22;39139;53.144;6.244;2023-04-19T09:26:00;16.20;92.20
51733;DHT22;39139;53.144;6.244;2023-04-19T09:28:27;16.20;93.00
51733;DHT22;39139;53.144;6.244;2023-04-19T09:30:53;16.30;92.70
51733;DHT22;39139;53.144;6.244;2023-04-19T09:35:58;16.60;93.30
51733;DHT22;39139;53.144;6.244;2023-04-19T09:38:23;16.80;94.50
51733;DHT22;39139;53.144;6.244;2023-04-19T09:40:49;16.90;93.90
51733;DHT22;39139;53.144;6.244;2023-04-19T09:43:24;17.10;93.50
51733;DHT22;39139;53.144;6.244;2023-04-19T09:45:52;16.90;92.90
51733;DHT22;39139;53.144;6.244;2023-04-19T09:48:18;16.80;93.50
51733;DHT22;39139;53.144;6.244;2023-04-19T09:50:54;16.80;93.60
51733;DHT22;39139;53.144;6.244;2023-04-19T09:53:21;16.90;93.60
51733;DHT22;39139;53.144;6.244;2023-04-19T09:55:47;16.60;92.40
51733;DHT22;39139;53.144;6.244;2023-04-19T09:58:14;16.70;93.30
51733;DHT22;39139;53.144;6.244;2023-04-19T10:00:40;16.80;93.60
51733;DHT22;39139;53.144;6.244;2023-04-19T10:03:09;16.90;94.00
51733;DHT22;39139;53.144;6.244;2023-04-19T10:05:38;16.70;93.40
51733;DHT22;39139;53.144;6.244;2023-04-19T10:08:07;16.80;93.30
51733;DHT22;39139;53.144;6.244;2023-04-19T10:10:34;16.60;93.20
51733;DHT22;39139;53.144;6.244;2023-04-19T10:13:02;16.30;92.30
51733;DHT22;39139;53.144;6.244;2023-04-19T10:15:29;16.30;92.70
51733;DHT22;39139;53.144;6.244;2023-04-19T10:17:56;16.20;93.10
51733;DHT22;39139;53.144;6.244;2023-04-19T10:20:54;16.20;92.70
51733;DHT22;39139;53.144;6.244;2023-04-19T10:23:22;16.20;93.50
51733;DHT22;39139;53.144;6.244;2023-04-19T10:25:48;16.20;92.60
51733;DHT22;39139;53.144;6.244;2023-04-19T10:28:17;16.20;93.10
51733;DHT22;39139;53.144;6.244;2023-04-19T10:30:59;16.40;93.50
51733;DHT22;39139;53.144;6.244;2023-04-19T10:33:27;16.30;92.20
51733;DHT22;39139;53.144;6.244;2023-04-19T10:35:58;16.30;92.60
51733;DHT22;39139;53.144;6.244;2023-04-19T10:41:01;16.40;91.80
51733;DHT22;39139;53.144;6.244;2023-04-19T10:45:59;16.40;92.10
51733;DHT22;39139;53.144;6.244;2023-04-19T10:51:15;16.60;92.50
51733;DHT22;39139;53.144;6.244;2023-04-19T10:53:51;16.70;92.80
51733;DHT22;39139;53.144;6.244;2023-04-19T10:56:19;16.90;93.00
51733;DHT22;39139;53.144;6.244;2023-04-19T11:01:44;16.80;92.30
51733;DHT22;39139;53.144;6.244;2023-04-19T11:06:55;16.90;93.60
51733;DHT22;39139;53.144;6.244;2023-04-19T11:09:38;17.00;93.00
51733;DHT22;39139;53.144;6.244;2023-04-19T11:12:07;17.10;92.90
51733;DHT22;39139;53.144;6.244;2023-04-19T11:14:35;16.90;92.30
51733;DHT22;39139;53.144;6.244;2023-04-19T11:17:12;17.10;92.70
51733;DHT22;39139;53.144;6.244;2023-04-19T11:19:42;17.10;91.80
51733;DHT22;39139;53.144;6.244;2023-04-19T11:22:08;16.80;91.50
51733;DHT22;39139;53.144;6.244;2023-04-19T11:24:34;16.80;92.20
51733;DHT22;39139;53.144;6.244;2023-04-19T11:26:59;16.70;91.40
51733;DHT22;39139;53.144;6.244;2023-04-19T11:29:25;16.70;91.50
51733;DHT22;39139;53.144;6.244;2023-04-19T11:31:51;16.50;91.60
51733;DHT22;39139;53.144;6.244;2023-04-19T11:34:21;16.20;91.70
51733;DHT22;39139;53.144;6.244;2023-04-19T11:36:49;16.20;91.80
51733;DHT22;39139;53.144;6.244;2023-04-19T11:39:14;16.30;93.00
51733;DHT22;39139;53.144;6.244;2023-04-19T11:41:40;16.50;93.50
51733;DHT22;39139;53.144;6.244;2023-04-19T11:44:16;16.70;93.30
51733;DHT22;39139;53.144;6.244;2023-04-19T11:47:02;16.70;93.00
51733;DHT22;39139;53.144;6.244;2023-04-19T11:49:31;16.80;94.00
51733;DHT22;39139;53.144;6.244;2023-04-19T11:52:01;16.70;93.30
51733;DHT22;39139;53.144;6.244;2023-04-19T11:54:27;16.40;92.70
51733;DHT22;39139;53.144;6.244;2023-04-19T11:57:04;16.50;93.10
51733;DHT22;39139;53.144;6.244;2023-04-19T11:59:31;16.50;92.80
51733;DHT22;39139;53.144;6.244;2023-04-19T12:02:07;16.50;94.00
51733;DHT22;39139;53.144;6.244;2023-04-19T12:04:33;16.60;95.90
51733;DHT22;39139;53.144;6.244;2023-04-19T12:07:00;16.90;95.60
51733;DHT22;39139;53.144;6.244;2023-04-19T12:09:26;16.90;93.70
51733;DHT22;39139;53.144;6.244;2023-04-19T12:11:52;17.00;95.10
51733;DHT22;39139;53.144;6.244;2023-04-19T12:14:19;16.80;95.50
51733;DHT22;39139;53.144;6.244;2023-04-19T12:17:11;16.80;95.30
51733;DHT22;39139;53.144;6.244;2023-04-19T12:19:45;17.00;93.20
51733;DHT22;39139;53.144;6.244;2023-04-19T12:22:14;16.90;93.40
51733;DHT22;39139;53.144;6.244;2023-04-19T12:24:41;16.80;93.50
51733;DHT22;39139;53.144;6.244;2023-04-19T12:27:07;17.00;94.30
51733;DHT22;39139;53.144;6.244;2023-04-19T12:29:33;17.00;93.50
51733;DHT22;39139;53.144;6.244;2023-04-19T12:31:59;16.80;94.40
51733;DHT22;39139;53.144;6.244;2023-04-19T12:34:25;16.80;96.30
51733;DHT22;39139;53.144;6.244;2023-04-19T12:36:51;16.70;96.50
51733;DHT22;39139;53.144;6.244;2023-04-19T12:39:17;16.70;96.70
51733;DHT22;39139;53.144;6.244;2023-04-19T12:41:42;16.70;96.70
51733;DHT22;39139;53.144;6.244;2023-04-19T12:44:08;16.70;96.80
51733;DHT22;39139;53.144;6.244;2023-04-19T12:46:33;16.40;96.00
51733;DHT22;39139;53.144;6.244;2023-04-19T12:48:59;16.60;96.50
51733;DHT22;39139;53.144;6.244;2023-04-19T12:51:25;16.70;97.40
51733;DHT22;39139;53.144;6.244;2023-04-19T12:53:52;16.70;97.30
51733;DHT22;39139;53.144;6.244;2023-04-19T12:56:18;16.60;96.90
51733;DHT22;39139;53.144;6.244;2023-04-19T12:58:44;16.40;97.00
51733;DHT22;39139;53.144;6.244;2023-04-19T13:01:10;16.40;97.80
51733;DHT22;39139;53.144;6.244;2023-04-19T13:03:36;16.70;98.10
51733;DHT22;39139;53.144;6.244;2023-04-19T13:06:02;16.70;97.80
51733;DHT22;39139;53.144;6.244;2023-04-19T13:08:28;16.60;97.40
51733;DHT22;39139;53.144;6.244;2023-04-19T13:10:57;16.70;98.00
51733;DHT22;39139;53.144;6.244;2023-04-19T13:13:25;16.80;97.80
51733;DHT22;39139;53.144;6.244;2023-04-19T13:15:51;16.70;97.30
51733;DHT22;39139;53.144;6.244;2023-04-19T13:18:18;16.70;96.90
51733;DHT22;39139;53.144;6.244;2023-04-19T13:20:43;16.70;97.00
51733;DHT22;39139;53.144;6.244;2023-04-19T13:23:09;16.80;97.30
51733;DHT22;39139;53.144;6.244;2023-04-19T13:25:35;16.70;97.20
51733;DHT22;39139;53.144;6.244;2023-04-19T13:28:00;16.70;97.30
51733;DHT22;39139;53.144;6.244;2023-04-19T13:30:26;16.50;96.70
51733;DHT22;39139;53.144;6.244;2023-04-19T13:32:51;16.60;97.40
51733;DHT22;39139;53.144;6.244;2023-04-19T13:35:17;16.80;97.80
51733;DHT22;39139;53.144;6.244;2023-04-19T13:37:43;16.70;97.40
51733;DHT22;39139;53.144;6.244;2023-04-19T13:40:11;16.60;97.40
51733;DHT22;39139;53.144;6.244;2023-04-19T13:42:37;16.60;97.40
51733;DHT22;39139;53.144;6.244;2023-04-19T13:45:02;16.50;97.20
51733;DHT22;39139;53.144;6.244;2023-04-19T13:47:28;16.50;96.60
51733;DHT22;39139;53.144;6.244;2023-04-19T13:49:54;16.40;96.00
51733;DHT22;39139;53.144;6.244;2023-04-19T13:52:20;16.30;96.30
51733;DHT22;39139;53.144;6.244;2023-04-19T13:54:48;16.30;96.80
51733;DHT22;39139;53.144;6.244;2023-04-19T13:57:13;16.10;96.20
51733;DHT22;39139;53.144;6.244;2023-04-19T13:59:39;16.10;96.50
51733;DHT22;39139;53.144;6.244;2023-04-19T14:02:04;16.20;96.40
51733;DHT22;39139;53.144;6.244;2023-04-19T14:04:31;16.20;96.40
51733;DHT22;39139;53.144;6.244;2023-04-19T14:06:57;16.30;96.70
51733;DHT22;39139;53.144;6.244;2023-04-19T14:09:22;16.40;96.50
51733;DHT22;39139;53.144;6.244;2023-04-19T14:11:48;16.30;96.60
51733;DHT22;39139;53.144;6.244;2023-04-19T14:14:14;16.20;96.40
51733;DHT22;39139;53.144;6.244;2023-04-19T14:16:40;16.20;97.10
51733;DHT22;39139;53.144;6.244;2023-04-19T14:19:06;16.30;96.70
51733;DHT22;39139;53.144;6.244;2023-04-19T14:21:31;16.30;97.10
51733;DHT22;39139;53.144;6.244;2023-04-19T14:23:57;16.30;96.40
51733;DHT22;39139;53.144;6.244;2023-04-19T14:26:23;16.10;96.80
51733;DHT22;39139;53.144;6.244;2023-04-19T14:28:48;16.20;97.40
51733;DHT22;39139;53.144;6.244;2023-04-19T14:31:14;16.00;97.70
51733;DHT22;39139;53.144;6.244;2023-04-19T14:33:40;15.90;97.70
51733;DHT22;39139;53.144;6.244;2023-04-19T14:36:06;15.80;97.70
51733;DHT22;39139;53.144;6.244;2023-04-19T14:38:31;15.70;97.90
51733;DHT22;39139;53.144;6.244;2023-04-19T14:40:58;15.50;98.00
51733;DHT22;39139;53.144;6.244;2023-04-19T14:43:24;15.40;98.30
51733;DHT22;39139;53.144;6.244;2023-04-19T14:45:51;15.50;98.30
51733;DHT22;39139;53.144;6.244;2023-04-19T14:48:17;15.20;98.20
51733;DHT22;39139;53.144;6.244;2023-04-19T14:50:42;15.20;98.30
51733;DHT22;39139;53.144;6.244;2023-04-19T14:53:08;15.10;98.10
51733;DHT22;39139;53.144;6.244;2023-04-19T14:55:36;15.10;98.60
51733;DHT22;39139;53.144;6.244;2023-04-19T14:58:03;15.20;98.50
51733;DHT22;39139;53.144;6.244;2023-04-19T15:00:28;15.00;98.00
51733;DHT22;39139;53.144;6.244;2023-04-19T15:02:54;15.10;98.10
51733;DHT22;39139;53.144;6.244;2023-04-19T15:05:25;15.10;98.20
51733;DHT22;39139;53.144;6.244;2023-04-19T15:07:51;14.90;98.00
51733;DHT22;39139;53.144;6.244;2023-04-19T15:10:17;14.90;97.70
51733;DHT22;39139;53.144;6.244;2023-04-19T15:12:46;14.80;97.80
51733;DHT22;39139;53.144;6.244;2023-04-19T15:15:11;14.70;98.00
51733;DHT22;39139;53.144;6.244;2023-04-19T15:17:37;14.50;98.00
51733;DHT22;39139;53.144;6.244;2023-04-19T15:20:03;14.50;98.30
51733;DHT22;39139;53.144;6.244;2023-04-19T15:22:31;14.40;98.30
51733;DHT22;39139;53.144;6.244;2023-04-19T15:24:58;14.50;98.50
51733;DHT22;39139;53.144;6.244;2023-04-19T15:27:24;14.30;97.90
51733;DHT22;39139;53.144;6.244;2023-04-19T15:29:50;14.40;97.90
51733;DHT22;39139;53.144;6.244;2023-04-19T15:32:15;14.20;97.70
51733;DHT22;39139;53.144;6.244;2023-04-19T15:34:41;14.20;97.70
51733;DHT22;39139;53.144;6.244;2023-04-19T15:37:07;14.20;98.30
51733;DHT22;39139;53.144;6.244;2023-04-19T15:39:32;14.20;97.90
51733;DHT22;39139;53.144;6.244;2023-04-19T15:41:58;14.20;97.30
51733;DHT22;39139;53.144;6.244;2023-04-19T15:44:24;14.10;97.40
51733;DHT22;39139;53.144;6.244;2023-04-19T15:46:49;14.00;97.40
51733;DHT22;39139;53.144;6.244;2023-04-19T15:49:15;14.00;97.20
51733;DHT22;39139;53.144;6.244;2023-04-19T15:51:41;14.00;97.40